createdAt,value
2023-03-05T00:00:39.265Z,33.97
2023-03-05T00:01:41.093Z,33.40
2023-03-05T00:02:43.125Z,33.53
2023-03-05T00:03:45.822Z,29.97
2023-03-05T00:04:47.393Z,34.53
2023-03-05T00:05:48.950Z,29.80
2023-03-05T00:06:50.864Z,32.83
2023-03-05T00:07:52.457Z,32.27
2023-03-05T00:08:56.716Z,35.67
2023-03-05T00:10:03.012Z,33.73
2023-03-05T00:11:07.807Z,35.47
2023-03-05T00:12:09.612Z,35.13
2023-03-05T00:13:11.160Z,33.30
2023-03-05T00:14:13.174Z,34.27
2023-03-05T00:15:14.817Z,34.73
2023-03-05T00:16:16.646Z,36.07
2023-03-05T00:17:18.231Z,37.63
2023-03-05T00:18:20.388Z,35.87
2023-03-05T00:19:21.954Z,35.17
2023-03-05T00:20:23.550Z,32.33
2023-03-05T00:21:38.017Z,33.60
2023-03-05T00:22:39.571Z,38.90
2023-03-05T00:23:41.135Z,33.63
2023-03-05T00:24:42.640Z,37.40
2023-03-05T00:25:46.017Z,38.67
2023-03-05T00:26:48.079Z,35.83
2023-03-05T00:27:49.617Z,34.23
2023-03-05T00:28:52.462Z,34.73
2023-03-05T00:29:53.977Z,36.87
2023-03-05T00:30:59.893Z,35.10
2023-03-05T00:32:01.494Z,34.13
2023-03-05T00:33:03.196Z,34.60
2023-03-05T00:34:08.497Z,36.03
2023-03-05T00:35:10.282Z,37.23
2023-03-05T00:36:11.899Z,30.43
2023-03-05T00:37:13.470Z,29.47
2023-03-05T00:38:15.022Z,29.17
2023-03-05T00:39:18.120Z,27.63
2023-03-05T00:40:20.029Z,25.80
2023-03-05T00:41:21.911Z,26.53
2023-03-05T00:42:23.461Z,26.80
2023-03-05T00:43:25.078Z,28.23
2023-03-05T00:44:26.677Z,26.03
2023-03-05T00:45:28.225Z,25.33
2023-03-05T00:46:29.979Z,25.00
2023-03-05T00:47:31.606Z,26.77
2023-03-05T00:48:33.094Z,24.83
2023-03-05T00:49:34.817Z,23.90
2023-03-05T00:50:36.324Z,25.13
2023-03-05T00:51:38.032Z,23.10
2023-03-05T00:52:39.598Z,21.97
2023-03-05T00:53:41.164Z,22.70
2023-03-05T00:54:42.692Z,22.43
2023-03-05T00:55:44.261Z,23.70
2023-03-05T00:56:46.483Z,23.87
2023-03-05T00:57:48.113Z,25.10
2023-03-05T00:58:49.685Z,23.20
2023-03-05T00:59:51.186Z,25.00
2023-03-05T01:00:52.752Z,24.40
2023-03-05T01:01:54.316Z,30.10
2023-03-05T01:02:55.984Z,26.73
2023-03-05T01:03:59.580Z,25.87
2023-03-05T01:05:01.163Z,26.63
2023-03-05T01:06:07.959Z,27.80
2023-03-05T01:07:09.474Z,32.90
2023-03-05T01:08:11.741Z,32.90
2023-03-05T01:09:13.420Z,33.27
2023-03-05T01:10:14.969Z,36.37
2023-03-05T01:11:16.662Z,34.53
2023-03-05T01:12:18.216Z,37.50
2023-03-05T01:13:19.922Z,34.73
2023-03-05T01:14:21.524Z,34.40
2023-03-05T01:15:24.054Z,38.13
2023-03-05T01:16:25.714Z,39.10
2023-03-05T01:17:27.483Z,43.17
2023-03-05T01:18:29.156Z,38.37
2023-03-05T01:19:30.712Z,38.53
2023-03-05T01:20:32.281Z,37.60
2023-03-05T01:21:35.856Z,39.67
2023-03-05T01:22:37.371Z,35.60
2023-03-05T01:23:38.955Z,36.73
2023-03-05T01:24:40.562Z,40.03
2023-03-05T01:25:42.242Z,38.87
2023-03-05T01:26:43.844Z,36.87
2023-03-05T01:27:46.134Z,36.97
2023-03-05T01:28:47.755Z,38.77
2023-03-05T01:29:49.329Z,34.93
2023-03-05T01:30:50.930Z,38.50
2023-03-05T01:31:52.653Z,35.13
2023-03-05T01:32:54.996Z,38.07
2023-03-05T01:33:56.592Z,42.17
2023-03-05T01:34:58.106Z,35.87
2023-03-05T01:35:59.695Z,40.93
2023-03-05T01:37:01.236Z,42.67
2023-03-05T01:38:02.757Z,48.67
2023-03-05T01:39:04.462Z,41.83
2023-03-05T01:40:06.771Z,40.47
2023-03-05T01:41:08.753Z,41.87
2023-03-05T01:42:10.319Z,44.83
2023-03-05T01:43:12.020Z,37.50
2023-03-05T01:44:26.536Z,38.37
2023-03-05T01:45:32.548Z,36.57
2023-03-05T01:46:38.729Z,33.83
2023-03-05T01:47:40.573Z,39.07
2023-03-05T01:48:45.920Z,37.10
2023-03-05T01:49:47.550Z,31.83
2023-03-05T01:50:49.248Z,35.67
2023-03-05T01:52:00.046Z,32.97
2023-03-05T01:53:06.565Z,30.03
2023-03-05T01:54:10.619Z,30.50
2023-03-05T01:55:18.043Z,31.43
2023-03-05T01:56:19.946Z,32.70
2023-03-05T01:57:36.879Z,32.73
2023-03-05T01:58:39.842Z,33.17
2023-03-05T01:59:44.720Z,29.70
2023-03-05T02:00:48.369Z,30.47
2023-03-05T02:01:55.934Z,31.53
2023-03-05T02:03:02.197Z,30.43
2023-03-05T02:04:04.876Z,32.13
2023-03-05T02:05:29.911Z,34.03
2023-03-05T02:06:31.637Z,34.43
2023-03-05T02:07:33.802Z,37.07
2023-03-05T02:08:35.357Z,36.23
2023-03-05T02:09:41.195Z,42.30
2023-03-05T02:10:45.793Z,43.27
2023-03-05T02:11:47.393Z,38.23
2023-03-05T02:12:50.203Z,45.10
2023-03-05T02:13:52.078Z,40.17
2023-03-05T02:14:59.280Z,47.33
2023-03-05T02:16:02.247Z,43.87
2023-03-05T02:17:04.027Z,45.67
2023-03-05T02:18:07.289Z,39.17
2023-03-05T02:19:11.386Z,37.63
2023-03-05T02:20:15.335Z,41.20
2023-03-05T02:21:28.528Z,40.90
2023-03-05T02:22:30.115Z,37.00
2023-03-05T02:23:36.364Z,38.43
2023-03-05T02:24:37.905Z,37.00
2023-03-05T02:25:39.507Z,36.20
2023-03-05T02:26:44.698Z,38.43
2023-03-05T02:28:23.240Z,37.53
2023-03-05T02:29:25.045Z,34.63
2023-03-05T02:30:27.489Z,35.93
2023-03-05T02:31:29.606Z,34.33
2023-03-05T02:32:31.199Z,35.13
2023-03-05T02:33:32.781Z,34.77
2023-03-05T02:34:34.267Z,34.27
2023-03-05T02:35:36.279Z,35.03
2023-03-05T02:36:37.947Z,34.80
2023-03-05T02:37:39.985Z,35.77
2023-03-05T02:38:43.438Z,30.67
2023-03-05T02:39:45.057Z,33.40
2023-03-05T02:40:46.701Z,33.10
2023-03-05T02:41:48.283Z,35.10
2023-03-05T02:42:49.813Z,35.30
2023-03-05T02:43:51.457Z,31.20
2023-03-05T02:44:52.963Z,34.90
2023-03-05T02:45:54.556Z,32.97
2023-03-05T02:46:56.876Z,37.90
2023-03-05T02:47:58.459Z,33.37
2023-03-05T02:49:00.369Z,34.47
2023-03-05T02:50:02.310Z,33.50
2023-03-05T02:51:06.175Z,38.30
2023-03-05T02:52:07.876Z,33.47
2023-03-05T02:53:09.535Z,39.93
2023-03-05T02:54:11.128Z,35.70
2023-03-05T02:55:12.687Z,37.23
2023-03-05T02:56:14.326Z,35.63
2023-03-05T02:57:16.162Z,36.70
2023-03-05T02:58:18.243Z,32.90
2023-03-05T02:59:19.795Z,32.70
2023-03-05T03:00:21.646Z,35.10
2023-03-05T03:01:23.319Z,33.37
2023-03-05T03:02:24.955Z,31.60
2023-03-05T03:03:26.601Z,34.03
2023-03-05T03:04:28.176Z,35.17
2023-03-05T03:05:29.764Z,34.53
2023-03-05T03:06:31.321Z,35.67
2023-03-05T03:07:34.495Z,34.50
2023-03-05T03:08:36.235Z,34.23
2023-03-05T03:09:38.226Z,36.13
2023-03-05T03:10:39.750Z,36.63
2023-03-05T03:11:41.338Z,37.43
2023-03-05T03:12:45.002Z,39.23
2023-03-05T03:13:46.494Z,36.00
2023-03-05T03:14:48.164Z,39.23
2023-03-05T03:15:49.697Z,39.90
2023-03-05T03:16:51.233Z,39.43
2023-03-05T03:17:52.820Z,38.57
2023-03-05T03:18:54.400Z,39.03
2023-03-05T03:19:55.963Z,44.23
2023-03-05T03:20:57.535Z,39.53
2023-03-05T03:21:59.132Z,44.83
2023-03-05T03:23:00.796Z,43.53
2023-03-05T03:24:02.591Z,42.97
2023-03-05T03:25:05.250Z,45.93
2023-03-05T03:26:07.179Z,56.90
2023-03-05T03:27:08.856Z,53.60
2023-03-05T03:28:10.393Z,53.63
2023-03-05T03:29:11.966Z,50.77
2023-03-05T03:30:15.129Z,56.90
2023-03-05T03:31:17.416Z,55.27
2023-03-05T03:32:19.067Z,54.60
2023-03-05T03:33:20.634Z,51.03
2023-03-05T03:34:22.462Z,53.63
2023-03-05T03:35:24.081Z,57.97
2023-03-05T03:36:25.754Z,61.17
2023-03-05T03:37:27.664Z,55.30
2023-03-05T03:38:29.230Z,56.00
2023-03-05T03:39:30.879Z,55.37
2023-03-05T03:40:32.487Z,52.87
2023-03-05T03:41:34.290Z,52.77
2023-03-05T03:42:36.130Z,53.43
2023-03-05T03:43:37.861Z,55.40
2023-03-05T03:44:39.412Z,55.03
2023-03-05T03:45:45.150Z,55.97
2023-03-05T03:46:47.998Z,54.13
2023-03-05T03:47:50.263Z,51.00
2023-03-05T03:48:51.850Z,51.10
2023-03-05T03:49:56.316Z,53.73
2023-03-05T03:50:57.894Z,58.57
2023-03-05T03:51:59.660Z,55.10
2023-03-05T03:53:01.841Z,55.83
2023-03-05T03:54:03.440Z,60.23
2023-03-05T03:55:05.362Z,58.90
2023-03-05T03:56:07.155Z,57.87
2023-03-05T03:57:09.497Z,57.83
2023-03-05T03:58:11.126Z,56.57
2023-03-05T03:59:13.040Z,54.77
2023-03-05T04:00:14.958Z,56.03
2023-03-05T04:01:16.668Z,52.53
2023-03-05T04:02:18.405Z,49.97
2023-03-05T04:03:20.027Z,47.47
2023-03-05T04:04:21.655Z,42.13
2023-03-05T04:05:23.644Z,39.00
2023-03-05T04:06:25.332Z,38.53
2023-03-05T04:07:26.902Z,38.20
2023-03-05T04:08:28.511Z,38.10
2023-03-05T04:09:30.073Z,38.30
2023-03-05T04:10:31.628Z,45.17
2023-03-05T04:11:33.166Z,43.17
2023-03-05T04:12:34.799Z,42.70
2023-03-05T04:13:36.335Z,42.30
2023-03-05T04:14:38.065Z,46.10
2023-03-05T04:15:39.748Z,48.17
2023-03-05T04:16:41.362Z,46.93
2023-03-05T04:17:42.918Z,47.00
2023-03-05T04:18:44.476Z,54.33
2023-03-05T04:19:46.099Z,55.33
2023-03-05T04:20:47.932Z,47.67
2023-03-05T04:21:49.503Z,48.20
2023-03-05T04:22:51.164Z,46.50
2023-03-05T04:23:52.714Z,46.13
2023-03-05T04:24:54.306Z,46.97
2023-03-05T04:25:55.893Z,48.30
2023-03-05T04:26:57.488Z,41.73
2023-03-05T04:27:59.182Z,44.07
2023-03-05T04:29:00.737Z,40.53
2023-03-05T04:30:02.248Z,41.10
2023-03-05T04:31:04.507Z,41.50
2023-03-05T04:32:06.486Z,40.57
2023-03-05T04:33:08.077Z,38.27
2023-03-05T04:34:09.723Z,41.57
2023-03-05T04:35:11.335Z,39.37
2023-03-05T04:36:12.840Z,40.50
2023-03-05T04:37:14.462Z,40.53
2023-03-05T04:38:16.128Z,42.70
2023-03-05T04:39:17.737Z,37.97
2023-03-05T04:40:19.575Z,38.87
2023-03-05T04:41:21.181Z,36.13
2023-03-05T04:42:22.751Z,39.67
2023-03-05T04:43:24.305Z,43.23
2023-03-05T04:44:26.131Z,41.23
2023-03-05T04:45:27.819Z,47.67
2023-03-05T04:46:29.488Z,52.60
2023-03-05T04:47:31.035Z,51.97
2023-03-05T04:48:32.633Z,52.37
2023-03-05T04:49:34.166Z,46.53
2023-03-05T04:50:35.759Z,51.73
2023-03-05T04:51:37.296Z,48.63
2023-03-05T04:52:43.781Z,51.50
2023-03-05T04:53:45.348Z,48.57
2023-03-05T04:54:46.910Z,48.87
2023-03-05T04:55:55.824Z,47.23
2023-03-05T04:56:57.407Z,45.60
2023-03-05T04:57:59.287Z,48.60
2023-03-05T04:59:00.870Z,48.80
2023-03-05T05:00:06.840Z,46.47
2023-03-05T05:01:08.434Z,49.90
2023-03-05T05:02:09.976Z,43.23
2023-03-05T05:03:11.677Z,45.23
2023-03-05T05:04:13.484Z,45.37
2023-03-05T05:05:21.734Z,46.10
2023-03-05T05:06:23.248Z,44.13
2023-03-05T05:07:24.784Z,44.00
2023-03-05T05:08:27.446Z,45.57
2023-03-05T05:09:28.978Z,46.43
2023-03-05T05:10:31.636Z,47.20
2023-03-05T05:11:33.200Z,46.80
2023-03-05T05:12:35.281Z,45.53
2023-03-05T05:13:36.827Z,47.77
2023-03-05T05:14:38.734Z,44.47
2023-03-05T05:15:40.819Z,45.70
2023-03-05T05:16:42.381Z,44.67
2023-03-05T05:17:44.164Z,44.50
2023-03-05T05:18:46.318Z,45.67
2023-03-05T05:19:47.955Z,46.17
2023-03-05T05:20:49.792Z,45.57
2023-03-05T05:21:51.345Z,44.80
2023-03-05T05:22:52.857Z,47.07
2023-03-05T05:23:54.437Z,46.43
2023-03-05T05:24:56.624Z,43.23
2023-03-05T05:26:03.128Z,39.93
2023-03-05T05:27:04.684Z,43.50
2023-03-05T05:28:06.252Z,39.57
2023-03-05T05:29:07.891Z,39.90
2023-03-05T05:30:10.243Z,38.63
2023-03-05T05:31:14.676Z,38.93
2023-03-05T05:32:18.015Z,33.40
2023-03-05T05:33:19.670Z,38.40
2023-03-05T05:34:21.249Z,37.93
2023-03-05T05:35:22.912Z,36.83
2023-03-05T05:36:24.610Z,33.23
2023-03-05T05:37:27.368Z,33.80
2023-03-05T05:38:28.879Z,34.63
2023-03-05T05:39:30.673Z,36.07
2023-03-05T05:40:32.300Z,33.80
2023-03-05T05:41:33.850Z,33.33
2023-03-05T05:42:35.550Z,34.53
2023-03-05T05:43:37.627Z,33.97
2023-03-05T05:44:39.193Z,34.13
2023-03-05T05:45:40.965Z,34.53
2023-03-05T05:46:42.640Z,33.33
2023-03-05T05:47:44.235Z,35.57
2023-03-05T05:48:46.705Z,37.43
2023-03-05T05:49:48.237Z,35.50
2023-03-05T05:50:49.731Z,41.00
2023-03-05T05:51:51.267Z,35.23
2023-03-05T05:52:52.901Z,33.47
2023-03-05T05:53:54.629Z,36.30
2023-03-05T05:54:56.295Z,37.67
2023-03-05T05:55:57.848Z,35.57
2023-03-05T05:56:59.540Z,36.00
2023-03-05T05:58:01.099Z,37.20
2023-03-05T05:59:02.636Z,36.23
2023-03-05T06:00:09.038Z,36.47
2023-03-05T06:01:29.189Z,36.57
2023-03-05T06:02:30.819Z,35.53
2023-03-05T06:03:32.465Z,34.97
2023-03-05T06:04:35.750Z,33.20
2023-03-05T06:05:37.354Z,35.07
2023-03-05T06:06:38.906Z,37.13
2023-03-05T06:07:40.666Z,34.20
2023-03-05T06:08:42.232Z,36.17
2023-03-05T06:09:44.049Z,37.23
2023-03-05T06:10:45.690Z,34.47
2023-03-05T06:11:47.433Z,37.00
2023-03-05T06:12:49.014Z,38.03
2023-03-05T06:13:50.713Z,34.10
2023-03-05T06:14:52.338Z,36.37
2023-03-05T06:16:02.128Z,34.70
2023-03-05T06:17:03.677Z,35.57
2023-03-05T06:18:05.306Z,32.60
2023-03-05T06:19:07.002Z,37.77
2023-03-05T06:20:09.236Z,38.63
2023-03-05T06:21:13.252Z,33.23
2023-03-05T06:22:14.820Z,33.77
2023-03-05T06:23:16.359Z,34.83
2023-03-05T06:24:19.356Z,33.53
2023-03-05T06:25:20.999Z,33.17
2023-03-05T06:26:22.904Z,34.57
2023-03-05T06:27:24.477Z,37.33
2023-03-05T06:28:26.510Z,34.90
2023-03-05T06:29:28.074Z,32.33
2023-03-05T06:30:29.666Z,35.40
2023-03-05T06:31:31.424Z,34.50
2023-03-05T06:32:33.155Z,34.50
2023-03-05T06:33:36.060Z,31.57
2023-03-05T06:34:37.653Z,35.10
2023-03-05T06:35:42.548Z,35.70
2023-03-05T06:36:44.293Z,34.50
2023-03-05T06:37:45.966Z,35.13
2023-03-05T06:38:48.958Z,31.43
2023-03-05T06:39:50.690Z,33.47
2023-03-05T06:40:52.534Z,35.50
2023-03-05T06:41:54.131Z,33.67
2023-03-05T06:42:55.752Z,31.87
2023-03-05T06:43:59.983Z,31.33
2023-03-05T06:45:01.541Z,35.53
2023-03-05T06:46:12.916Z,33.30
2023-03-05T06:47:14.658Z,33.60
2023-03-05T06:48:16.173Z,30.57
2023-03-05T06:49:17.798Z,34.03
2023-03-05T06:50:19.491Z,33.47
2023-03-05T06:51:29.915Z,33.80
2023-03-05T06:52:31.446Z,35.60
2023-03-05T06:53:33.033Z,33.53
2023-03-05T06:54:34.753Z,33.80
2023-03-05T06:55:39.779Z,36.10
2023-03-05T06:56:43.798Z,33.70
2023-03-05T06:57:45.423Z,38.00
2023-03-05T06:58:49.420Z,36.67
2023-03-05T06:59:51.008Z,33.63
2023-03-05T07:00:52.601Z,36.33
2023-03-05T07:01:54.195Z,36.40
2023-03-05T07:02:55.739Z,43.97
2023-03-05T07:04:00.617Z,39.43
2023-03-05T07:05:02.281Z,38.87
2023-03-05T07:06:09.478Z,46.03
2023-03-05T07:07:11.057Z,39.80
2023-03-05T07:08:12.637Z,39.63
2023-03-05T07:09:15.959Z,40.73
2023-03-05T07:10:17.558Z,43.40
2023-03-05T07:11:22.244Z,41.83
2023-03-05T07:12:23.772Z,43.47
2023-03-05T07:13:28.655Z,40.50
2023-03-05T07:14:30.196Z,39.27
2023-03-05T07:15:31.812Z,43.43
2023-03-05T07:16:34.851Z,40.60
2023-03-05T07:17:36.609Z,39.00
2023-03-05T07:18:38.115Z,40.73
2023-03-05T07:19:39.680Z,42.07
2023-03-05T07:20:41.453Z,39.47
2023-03-05T07:21:43.019Z,39.90
2023-03-05T07:22:44.562Z,39.00
2023-03-05T07:23:46.532Z,43.43
2023-03-05T07:24:48.112Z,41.03
2023-03-05T07:25:49.668Z,42.20
2023-03-05T07:26:51.296Z,37.87
2023-03-05T07:27:52.880Z,35.23
2023-03-05T07:28:55.253Z,41.93
2023-03-05T07:29:56.839Z,44.20
2023-03-05T07:31:13.563Z,38.27
2023-03-05T07:32:15.086Z,39.77
2023-03-05T07:33:16.613Z,38.03
2023-03-05T07:34:18.452Z,43.97
2023-03-05T07:35:20.185Z,40.03
2023-03-05T07:36:23.774Z,41.00
2023-03-05T07:37:25.364Z,41.03
2023-03-05T07:38:27.487Z,42.33
2023-03-05T07:39:29.099Z,40.47
2023-03-05T07:40:30.594Z,42.73
2023-03-05T07:41:32.425Z,40.70
2023-03-05T07:42:34.098Z,40.70
2023-03-05T07:43:35.732Z,43.30
2023-03-05T07:44:38.964Z,39.87
2023-03-05T07:45:42.244Z,48.87
2023-03-05T07:46:43.885Z,40.40
2023-03-05T07:47:45.488Z,39.33
2023-03-05T07:48:47.158Z,40.00
2023-03-05T07:49:49.107Z,44.27
2023-03-05T07:50:51.080Z,42.53
2023-03-05T07:51:52.657Z,46.63
2023-03-05T07:52:54.200Z,44.67
2023-03-05T07:53:57.575Z,41.67
2023-03-05T07:54:59.111Z,42.53
2023-03-05T07:56:00.960Z,42.07
2023-03-05T07:57:02.491Z,42.73
2023-03-05T07:58:03.988Z,44.03
2023-03-05T07:59:08.785Z,43.43
2023-03-05T08:00:11.086Z,43.77
2023-03-05T08:01:14.988Z,44.33
2023-03-05T08:02:16.593Z,43.60
2023-03-05T08:03:18.692Z,41.67
2023-03-05T08:04:20.235Z,46.57
2023-03-05T08:05:21.788Z,43.73
2023-03-05T08:06:24.163Z,45.87
2023-03-05T08:07:25.731Z,43.90
2023-03-05T08:08:27.307Z,43.07
2023-03-05T08:09:29.188Z,41.77
2023-03-05T08:10:31.109Z,45.03
2023-03-05T08:11:33.022Z,41.33
2023-03-05T08:12:34.840Z,43.63
2023-03-05T08:13:37.152Z,40.80
2023-03-05T08:14:38.774Z,42.77
2023-03-05T08:15:40.526Z,43.23
2023-03-05T08:16:42.168Z,44.47
2023-03-05T08:17:43.674Z,47.00
2023-03-05T08:18:45.733Z,43.57
2023-03-05T08:19:47.277Z,40.30
2023-03-05T08:20:48.872Z,39.50
2023-03-05T08:21:50.441Z,41.07
2023-03-05T08:22:52.139Z,44.17
2023-03-05T08:23:53.768Z,37.80
2023-03-05T08:24:56.473Z,39.63
2023-03-05T08:25:58.018Z,39.93
2023-03-05T08:27:00.556Z,42.37
2023-03-05T08:28:02.150Z,37.50
2023-03-05T08:29:04.737Z,41.60
2023-03-05T08:30:07.722Z,36.73
2023-03-05T08:31:14.196Z,39.67
2023-03-05T08:32:15.860Z,36.87
2023-03-05T08:33:17.986Z,38.13
2023-03-05T08:34:22.349Z,36.63
2023-03-05T08:35:23.963Z,39.80
2023-03-05T08:36:26.014Z,37.73
2023-03-05T08:37:27.525Z,33.40
2023-03-05T08:38:29.054Z,38.77
2023-03-05T08:39:30.702Z,40.17
2023-03-05T08:40:32.639Z,36.47
2023-03-05T08:41:34.666Z,36.87
2023-03-05T08:42:36.268Z,37.60
2023-03-05T08:43:37.846Z,41.60
2023-03-05T08:44:39.439Z,38.17
2023-03-05T08:45:40.977Z,42.90
2023-03-05T08:46:42.733Z,44.07
2023-03-05T08:47:44.358Z,36.20
2023-03-05T08:48:45.898Z,37.80
2023-03-05T08:49:47.592Z,38.50
2023-03-05T08:50:49.924Z,39.67
2023-03-05T08:51:51.494Z,37.17
2023-03-05T08:52:53.098Z,36.50
2023-03-05T08:53:56.521Z,35.97
2023-03-05T08:54:58.189Z,39.17
2023-03-05T08:56:00.136Z,37.20
2023-03-05T08:57:01.710Z,38.17
2023-03-05T08:58:03.540Z,35.57
2023-03-05T08:59:05.497Z,36.47
2023-03-05T09:00:07.660Z,35.57
2023-03-05T09:01:09.862Z,37.53
2023-03-05T09:02:13.420Z,41.10
2023-03-05T09:03:15.166Z,35.30
2023-03-05T09:04:17.022Z,39.40
2023-03-05T09:05:19.491Z,34.10
2023-03-05T09:06:21.234Z,35.83
2023-03-05T09:07:22.763Z,36.40
2023-03-05T09:08:24.274Z,35.10
2023-03-05T09:09:25.865Z,34.83
2023-03-05T09:10:27.430Z,36.80
2023-03-05T09:11:28.982Z,37.83
2023-03-05T09:12:30.534Z,38.07
2023-03-05T09:13:32.839Z,38.13
2023-03-05T09:14:34.383Z,36.67
2023-03-05T09:15:36.053Z,37.13
2023-03-05T09:16:40.438Z,38.07
2023-03-05T09:17:43.100Z,39.27
2023-03-05T09:18:45.155Z,36.83
2023-03-05T09:19:46.888Z,38.73
2023-03-05T09:20:48.428Z,38.67
2023-03-05T09:21:50.277Z,40.27
2023-03-05T09:22:51.844Z,36.60
2023-03-05T09:23:53.515Z,39.47
2023-03-05T09:24:55.099Z,34.90
2023-03-05T09:25:56.623Z,37.00
2023-03-05T09:26:59.881Z,34.07
2023-03-05T09:28:01.516Z,34.87
2023-03-05T09:29:03.627Z,36.43
2023-03-05T09:30:05.994Z,40.67
2023-03-05T09:31:09.273Z,34.13
2023-03-05T09:32:10.939Z,36.17
2023-03-05T09:33:12.619Z,33.80
2023-03-05T09:34:14.127Z,34.00
2023-03-05T09:35:15.684Z,35.80
2023-03-05T09:36:23.964Z,39.87
2023-03-05T09:37:25.862Z,31.63
2023-03-05T09:38:27.916Z,34.60
2023-03-05T09:39:29.548Z,32.63
2023-03-05T09:40:54.322Z,40.07
2023-03-05T09:41:55.808Z,36.07
2023-03-05T09:43:19.506Z,34.27
2023-03-05T09:44:52.243Z,36.03
2023-03-05T09:46:26.034Z,33.37
2023-03-05T09:47:48.432Z,32.53
2023-03-05T09:48:53.539Z,32.37
2023-03-05T09:50:13.843Z,35.90
2023-03-05T09:51:22.335Z,32.97
2023-03-05T09:52:34.835Z,34.60
2023-03-05T09:53:39.390Z,35.77
2023-03-05T09:54:45.596Z,32.70
2023-03-05T09:56:01.535Z,32.67
2023-03-05T09:57:05.436Z,31.20
2023-03-05T09:58:14.297Z,33.13
2023-03-05T09:59:39.840Z,34.23
2023-03-05T10:00:56.121Z,29.67
2023-03-05T10:02:05.161Z,36.57
2023-03-05T10:03:16.374Z,38.17
2023-03-05T10:04:33.263Z,36.93
2023-03-05T10:05:50.648Z,30.20
2023-03-05T10:06:52.165Z,34.80
2023-03-05T10:07:59.326Z,32.67
2023-03-05T10:09:10.128Z,32.73
2023-03-05T10:10:22.464Z,30.80
2023-03-05T10:11:50.916Z,31.10
2023-03-05T10:12:57.447Z,30.80
2023-03-05T10:13:59.140Z,27.83
2023-03-05T10:15:03.120Z,31.33
2023-03-05T10:16:34.917Z,33.80
2023-03-05T10:17:58.462Z,32.57
2023-03-05T10:19:11.066Z,31.30
2023-03-05T10:20:32.434Z,31.43
2023-03-05T10:21:40.385Z,27.80
2023-03-05T10:23:00.416Z,28.67
2023-03-05T10:24:25.505Z,30.47
2023-03-05T10:25:55.338Z,29.27
2023-03-05T10:27:04.583Z,33.67
2023-03-05T10:28:26.061Z,34.50
2023-03-05T10:29:39.623Z,27.10
2023-03-05T10:31:09.106Z,25.60
2023-03-05T10:33:04.840Z,28.63
2023-03-05T10:34:22.615Z,26.73
2023-03-05T10:35:36.003Z,26.57
2023-03-05T10:37:14.469Z,28.43
2023-03-05T10:38:28.578Z,28.80
2023-03-05T10:39:48.354Z,29.27
2023-03-05T10:40:55.541Z,27.80
2023-03-05T10:42:20.198Z,27.13
2023-03-05T10:43:35.436Z,29.37
2023-03-05T10:44:57.550Z,27.27
2023-03-05T10:46:02.792Z,26.90
2023-03-05T10:47:15.050Z,27.47
2023-03-05T10:48:40.968Z,25.70
2023-03-05T10:49:51.706Z,29.20
2023-03-05T10:51:02.674Z,24.43
2023-03-05T10:52:08.841Z,28.03
2023-03-05T10:53:10.311Z,28.70
2023-03-05T10:54:25.383Z,28.63
2023-03-05T10:55:26.989Z,29.90
2023-03-05T10:56:31.843Z,29.53
2023-03-05T10:57:33.443Z,27.50
2023-03-05T10:58:35.044Z,27.73
2023-03-05T10:59:36.647Z,26.23
2023-03-05T11:00:38.311Z,26.23
2023-03-05T11:01:39.969Z,29.20
2023-03-05T11:03:06.482Z,25.40
2023-03-05T11:04:26.936Z,27.77
2023-03-05T11:05:37.351Z,24.37
2023-03-05T11:06:41.539Z,27.27
2023-03-05T11:07:43.091Z,23.07
2023-03-05T11:08:45.309Z,28.43
2023-03-05T11:10:15.265Z,24.73
2023-03-05T11:11:19.578Z,28.33
2023-03-05T11:12:26.497Z,27.93
2023-03-05T11:13:29.253Z,29.20
2023-03-05T11:14:33.547Z,26.20
2023-03-05T11:15:35.171Z,22.33
2023-03-05T11:16:48.872Z,22.77
2023-03-05T11:18:08.100Z,26.13
2023-03-05T11:19:34.647Z,23.43
2023-03-05T11:20:36.916Z,26.27
2023-03-05T11:21:38.493Z,21.33
2023-03-05T11:22:40.042Z,23.13
2023-03-05T11:23:41.675Z,22.67
2023-03-05T11:24:46.713Z,22.83
2023-03-05T11:25:53.116Z,21.80
2023-03-05T11:26:57.584Z,24.87
2023-03-05T11:28:01.917Z,19.83
2023-03-05T11:29:04.991Z,26.77
2023-03-05T11:30:20.726Z,23.50
2023-03-05T11:31:26.333Z,22.27
2023-03-05T11:32:29.385Z,25.23
2023-03-05T11:33:31.514Z,21.17
2023-03-05T11:34:35.507Z,22.83
2023-03-05T11:35:39.786Z,28.20
2023-03-05T11:36:43.427Z,22.10
2023-03-05T11:38:00.361Z,22.83
2023-03-05T11:39:07.886Z,26.07
2023-03-05T11:40:25.254Z,23.93
2023-03-05T11:41:35.729Z,24.93
2023-03-05T11:42:40.366Z,23.60
2023-03-05T11:43:44.015Z,30.97
2023-03-05T11:44:48.442Z,27.57
2023-03-05T11:45:55.637Z,22.47
2023-03-05T11:47:35.813Z,29.33
2023-03-05T11:48:39.722Z,23.00
2023-03-05T11:49:46.170Z,21.97
2023-03-05T11:50:56.340Z,21.30
2023-03-05T11:52:20.513Z,21.33
2023-03-05T11:53:25.745Z,19.70
2023-03-05T11:54:36.575Z,21.00
2023-03-05T11:55:44.136Z,21.13
2023-03-05T11:56:46.386Z,27.23
2023-03-05T11:58:16.055Z,23.13
2023-03-05T11:59:30.295Z,23.43
2023-03-05T12:00:34.570Z,23.60
2023-03-05T12:01:47.521Z,26.50
2023-03-05T12:02:52.836Z,24.87
2023-03-05T12:03:55.696Z,23.47
2023-03-05T12:04:59.522Z,21.30
2023-03-05T12:06:13.286Z,21.00
2023-03-05T12:07:20.731Z,20.60
2023-03-05T12:08:29.550Z,22.50
2023-03-05T12:09:42.220Z,21.80
2023-03-05T12:10:44.351Z,18.67
2023-03-05T12:11:49.937Z,20.13
2023-03-05T12:12:54.518Z,26.27
2023-03-05T12:14:20.015Z,19.23
2023-03-05T12:15:49.189Z,22.13
2023-03-05T12:16:58.892Z,26.10
2023-03-05T12:18:32.803Z,22.67
2023-03-05T12:19:45.732Z,21.63
2023-03-05T12:20:50.074Z,21.83
2023-03-05T12:21:53.039Z,21.83
2023-03-05T12:22:57.501Z,20.00
2023-03-05T12:24:01.832Z,22.43
2023-03-05T12:25:35.351Z,19.83
2023-03-05T12:26:59.237Z,21.67
2023-03-05T12:28:01.560Z,20.83
2023-03-05T12:29:03.231Z,21.60
2023-03-05T12:30:05.476Z,19.93
2023-03-05T12:31:09.750Z,19.90
2023-03-05T12:32:28.974Z,18.30
2023-03-05T12:33:44.291Z,17.43
2023-03-05T12:34:48.419Z,20.67
2023-03-05T12:35:49.996Z,20.53
2023-03-05T12:36:51.592Z,20.90
2023-03-05T12:37:53.095Z,20.40
2023-03-05T12:38:56.294Z,20.00
2023-03-05T12:39:59.031Z,21.30
2023-03-05T12:41:21.979Z,17.07
2023-03-05T12:42:29.737Z,23.07
2023-03-05T12:43:33.924Z,21.43
2023-03-05T12:44:35.625Z,18.87
2023-03-05T12:45:40.027Z,17.40
2023-03-05T12:47:10.881Z,18.43
2023-03-05T12:48:12.772Z,19.30
2023-03-05T12:49:20.623Z,20.87
2023-03-05T12:50:28.295Z,21.63
2023-03-05T12:51:33.913Z,20.83
2023-03-05T12:52:35.579Z,18.90
2023-03-05T12:53:37.137Z,21.23
2023-03-05T12:54:42.380Z,22.23
2023-03-05T12:55:45.702Z,20.27
2023-03-05T12:56:48.044Z,22.27
2023-03-05T12:58:04.191Z,19.93
2023-03-05T12:59:06.020Z,23.10
2023-03-05T13:00:21.627Z,20.30
2023-03-05T13:01:36.192Z,19.57
2023-03-05T13:02:44.984Z,17.77
2023-03-05T13:04:05.231Z,17.00
2023-03-05T13:05:33.873Z,19.03
2023-03-05T13:06:36.733Z,21.63
2023-03-05T13:07:38.280Z,20.50
2023-03-05T13:08:39.877Z,20.07
2023-03-05T13:09:52.479Z,18.37
2023-03-05T13:10:57.813Z,19.23
2023-03-05T13:11:59.867Z,17.67
2023-03-05T13:13:02.680Z,17.20
2023-03-05T13:14:04.524Z,21.90
2023-03-05T13:15:09.401Z,21.43
2023-03-05T13:16:24.039Z,19.87
2023-03-05T13:17:33.726Z,19.43
2023-03-05T13:18:36.818Z,20.90
2023-03-05T13:19:41.852Z,23.23
2023-03-05T13:20:43.470Z,20.30
2023-03-05T13:21:45.170Z,20.70
2023-03-05T13:22:46.699Z,20.03
2023-03-05T13:23:57.660Z,21.50
2023-03-05T13:25:14.540Z,18.27
2023-03-05T13:26:19.289Z,18.20
2023-03-05T13:27:30.046Z,19.00
2023-03-05T13:28:32.707Z,19.33
2023-03-05T13:29:34.217Z,20.80
2023-03-05T13:30:36.185Z,20.33
2023-03-05T13:31:49.576Z,20.07
2023-03-05T13:32:53.054Z,19.00
2023-03-05T13:33:59.639Z,20.20
2023-03-05T13:35:01.461Z,17.63
2023-03-05T13:36:05.101Z,19.00
2023-03-05T13:37:17.327Z,17.10
2023-03-05T13:38:29.281Z,18.47
2023-03-05T13:39:56.481Z,19.77
2023-03-05T13:41:25.536Z,19.97
2023-03-05T13:42:32.790Z,17.70
2023-03-05T13:43:41.781Z,18.70
2023-03-05T13:44:43.423Z,18.27
2023-03-05T13:45:53.867Z,17.77
2023-03-05T13:47:18.136Z,17.33
2023-03-05T13:48:20.159Z,17.80
2023-03-05T13:49:23.233Z,16.80
2023-03-05T13:50:31.571Z,22.97
2023-03-05T13:51:45.547Z,18.50
2023-03-05T13:52:47.077Z,20.37
2023-03-05T13:53:49.271Z,16.37